Time;durP1;ratioP1;P1;durP2;ratioP2;P2;SDS_P1;SDS_P2;PMS_P1;PMS_P2;Temp;Humidity;BMP_temperature;BMP_pressure;BME280_temperature;BME280_humidity;BME280_pressure;Samples;Min_cycle;Max_cycle;Signal;HPM_P1;HPM_P2
2024/01/24 00:02:03;;;;;;;23.00;15.70;;;;;;;0.14;84.74;100139.80;107672;1256;74309;-40
2024/01/24 00:04:30;;;;;;;20.30;14.30;;;;;;;0.19;84.35;100136.95;107651;1253;69300;-40
2024/01/24 00:06:56;;;;;;;21.90;14.40;;;;;;;0.27;84.24;100137.13;107715;1254;73212;-40
2024/01/24 00:09:23;;;;;;;21.10;13.90;;;;;;;0.27;84.39;100134.36;107695;1253;60440;-40
2024/01/24 00:11:50;;;;;;;21.20;14.80;;;;;;;0.23;84.57;100133.58;107820;1254;60275;-40
2024/01/24 00:14:17;;;;;;;26.20;16.10;;;;;;;0.21;84.63;100132.14;107687;1252;73266;-40
2024/01/24 00:16:44;;;;;;;20.10;14.40;;;;;;;0.19;84.69;100134.07;107720;1254;69281;-40
2024/01/24 00:19:10;;;;;;;21.70;13.90;;;;;;;0.23;84.47;100140.07;107694;1254;60076;-39
2024/01/24 00:21:37;;;;;;;19.80;14.00;;;;;;;0.25;84.61;100138.36;107617;1254;60339;-40
2024/01/24 00:24:04;;;;;;;20.90;14.50;;;;;;;0.20;84.90;100139.81;107582;1254;60434;-41
2024/01/24 00:26:32;;;;;;;25.90;16.10;;;;;;;0.14;85.12;100139.14;107611;1254;74413;-40
2024/01/24 00:29:01;;;;;;;20.40;14.30;;;;;;;0.10;85.49;100136.82;107582;1254;69157;-40
2024/01/24 00:31:28;;;;;;;21.00;13.90;;;;;;;0.13;85.39;100124.80;107691;1253;72369;-40
2024/01/24 00:33:55;;;;;;;19.30;13.50;;;;;;;0.18;85.28;100122.08;107690;1254;60329;-40
2024/01/24 00:36:23;;;;;;;21.60;14.90;;;;;;;0.18;85.27;100121.17;107529;1253;60438;-40
2024/01/24 00:38:50;;;;;;;21.40;15.50;;;;;;;0.13;85.72;100115.59;107739;1253;74220;-40
2024/01/24 00:41:16;;;;;;;22.40;15.90;;;;;;;0.10;85.81;100115.86;107694;1256;69293;-40
2024/01/24 00:43:44;;;;;;;19.90;14.00;;;;;;;0.15;85.92;100119.14;107585;1253;73636;-40
2024/01/24 00:46:11;;;;;;;19.90;13.90;;;;;;;0.23;85.63;100115.76;107574;1254;60581;-40
2024/01/24 00:48:37;;;;;;;22.40;15.60;;;;;;;0.25;85.52;100113.45;107689;1254;60448;-39
2024/01/24 00:51:04;;;;;;;23.00;16.30;;;;;;;0.22;85.81;100109.20;107623;1256;74296;-40
2024/01/24 00:53:33;;;;;;;23.00;15.60;;;;;;;0.21;85.96;100110.64;107673;1253;69269;-40
2024/01/24 00:55:59;;;;;;;21.20;15.00;;;;;;;0.23;86.04;100108.88;107688;1253;73305;-40
2024/01/24 00:58:26;;;;;;;20.10;14.80;;;;;;;0.32;85.69;100109.16;107558;1254;61193;-40
2024/01/24 01:00:55;;;;;;;21.00;15.40;;;;;;;0.37;85.64;100106.80;107717;1254;60492;-40
2024/01/24 01:03:22;;;;;;;22.30;15.80;;;;;;;0.36;85.83;100102.52;107754;1254;74260;-40
2024/01/24 01:05:49;;;;;;;23.40;16.90;;;;;;;0.35;85.71;100104.13;107731;1254;69299;-39
2024/01/24 01:08:16;;;;;;;24.00;17.00;;;;;;;0.35;85.82;100102.73;107682;1254;73329;-40
2024/01/24 01:10:43;;;;;;;22.90;15.50;;;;;;;0.41;85.48;100108.54;107679;1256;61150;-40
2024/01/24 01:13:10;;;;;;;23.00;15.90;;;;;;;0.49;85.21;100108.17;107707;1252;60468;-40
2024/01/24 01:15:37;;;;;;;24.00;16.20;;;;;;;0.46;85.32;100109.05;107733;1252;74414;-40
2024/01/24 01:18:04;;;;;;;22.40;17.00;;;;;;;0.41;85.60;100098.40;107731;1254;69219;-40
2024/01/24 01:20:31;;;;;;;24.10;16.50;;;;;;;0.40;85.73;100097.96;107793;1251;71223;-40
2024/01/24 01:22:58;;;;;;;26.50;16.80;;;;;;;0.41;85.71;100095.02;107701;1251;61057;-41
2024/01/24 01:25:25;;;;;;;22.40;16.80;;;;;;;0.48;85.52;100094.73;107686;1251;60390;-40
2024/01/24 01:27:51;;;;;;;21.50;16.40;;;;;;;0.53;85.47;100097.29;107693;1251;74387;-40
2024/01/24 01:30:18;;;;;;;26.00;17.50;;;;;;;0.51;85.51;100093.93;107722;1251;67513;-40
2024/01/24 01:32:45;;;;;;;26.40;18.50;;;;;;;0.46;85.78;100097.14;107705;1251;72669;-40
2024/01/24 01:35:12;;;;;;;27.70;17.60;;;;;;;0.44;85.90;100101.95;107708;1251;61042;-40
2024/01/24 01:37:39;;;;;;;27.90;18.10;;;;;;;0.50;85.64;100100.65;107565;1251;60321;-40
2024/01/24 01:40:09;;;;;;;26.00;17.50;;;;;;;0.55;85.51;100103.51;107619;1256;73941;-40
2024/01/24 01:42:36;;;;;;;26.50;18.40;;;;;;;0.53;85.55;100092.42;107578;1251;68758;-40
2024/01/24 01:45:03;;;;;;;25.60;17.80;;;;;;;0.47;85.94;100089.03;107631;1252;71085;-40
2024/01/24 01:47:30;;;;;;;29.80;18.60;;;;;;;0.42;86.11;100092.48;107577;1251;59274;-40
2024/01/24 01:49:58;;;;;;;27.70;18.20;;;;;;;0.45;86.26;100087.13;107563;1251;59993;-40
2024/01/24 01:52:25;;;;;;;28.20;19.00;;;;;;;0.51;86.13;100091.36;107709;1251;72336;-40
2024/01/24 01:54:52;;;;;;;30.80;20.30;;;;;;;0.51;86.18;100084.69;107641;1251;69128;-40
2024/01/24 01:57:19;;;;;;;32.50;21.50;;;;;;;0.47;86.50;100083.33;107762;1251;72717;-40
2024/01/24 01:59:45;;;;;;;32.20;21.50;;;;;;;0.44;86.46;100083.23;107614;1251;60877;-40
2024/01/24 02:02:13;;;;;;;29.70;19.80;;;;;;;0.48;86.51;100084.13;107612;1251;60437;-40
2024/01/24 02:04:40;;;;;;;29.20;19.80;;;;;;;0.54;86.29;100089.80;106217;1251;1003757;-40
2024/01/24 02:07:06;;;;;;;31.60;21.00;;;;;;;0.55;86.42;100088.72;107659;1255;69084;-40
2024/01/24 02:09:34;;;;;;;32.00;21.60;;;;;;;0.54;86.65;100082.95;107670;1251;70998;-40
2024/01/24 02:12:00;;;;;;;32.70;21.70;;;;;;;0.53;86.70;100081.06;107729;1251;60488;-40
2024/01/24 02:14:28;;;;;;;37.10;22.30;;;;;;;0.54;86.87;100078.75;107695;1251;60446;-40
2024/01/24 02:16:54;;;;;;;29.50;20.80;;;;;;;0.61;86.55;100079.66;107662;1251;74256;-40
2024/01/24 02:19:21;;;;;;;32.60;20.80;;;;;;;0.69;86.40;100079.99;107672;1251;68941;-40
2024/01/24 02:21:48;;;;;;;35.50;21.70;;;;;;;0.71;86.23;100078.81;107689;1251;73091;-40
2024/01/24 02:24:15;;;;;;;35.20;22.80;;;;;;;0.68;86.39;100078.29;107702;1251;60277;-40
2024/01/24 02:26:41;;;;;;;36.70;23.40;;;;;;;0.66;86.43;100081.83;107726;1251;60312;-40
2024/01/24 02:29:08;;;;;;;34.10;22.20;;;;;;;0.66;86.53;100079.16;107737;1251;73646;-40
2024/01/24 02:31:35;;;;;;;35.60;23.10;;;;;;;0.74;86.31;100071.23;107706;1251;68902;-40
2024/01/24 02:34:03;;;;;;;25.10;17.60;;;;;;;0.80;86.04;100071.13;107683;1251;73239;-40
2024/01/24 02:36:30;;;;;;;35.00;23.00;;;;;;;0.82;86.13;100073.82;107763;1255;60464;-41
2024/01/24 02:38:57;;;;;;;33.90;22.50;;;;;;;0.83;86.38;100081.02;107668;1251;60469;-40
2024/01/24 02:41:25;;;;;;;35.40;23.80;;;;;;;0.80;86.20;100072.82;107713;1255;74298;-40
2024/01/24 02:43:53;;;;;;;36.10;22.90;;;;;;;0.79;86.47;100072.02;107658;1251;69240;-39
2024/01/24 02:46:20;;;;;;;35.50;22.40;;;;;;;0.85;86.33;100076.20;107690;1255;73041;-40
2024/01/24 02:48:49;;;;;;;33.30;21.40;;;;;;;0.93;85.95;100075.08;107660;1251;60960;-40
2024/01/24 02:51:27;;;;;;;35.50;24.10;;;;;;;0.95;85.85;100071.28;107647;1251;60433;-40
2024/01/24 02:53:54;;;;;;;38.60;24.90;;;;;;;0.91;86.05;100069.97;107691;1251;74449;-40
2024/01/24 02:56:21;;;;;;;36.20;23.10;;;;;;;0.90;86.12;100068.16;107570;1251;69199;-40
2024/01/24 02:58:48;;;;;;;38.30;23.20;;;;;;;0.90;86.15;100067.69;107558;1251;73069;-40
2024/01/24 03:01:15;;;;;;;36.10;22.80;;;;;;;0.97;86.02;100064.70;107531;1251;60801;-40
2024/01/24 03:03:43;;;;;;;33.40;21.40;;;;;;;1.05;85.86;100057.73;107660;1251;60332;-40
2024/01/24 03:06:10;;;;;;;36.10;22.90;;;;;;;1.08;85.78;100056.64;107643;1251;73618;-40
2024/01/24 03:08:48;;;;;;;35.40;24.00;;;;;;;1.09;85.92;100061.83;107604;1251;69283;-40
2024/01/24 03:11:15;;;;;;;37.10;25.40;;;;;;;1.11;86.05;100059.80;107637;1251;72434;-40
2024/01/24 03:13:41;;;;;;;34.50;22.50;;;;;;;1.13;85.97;100065.27;107619;1251;61032;-40
2024/01/24 03:16:08;;;;;;;35.50;23.30;;;;;;;1.19;85.64;100065.53;107575;1253;60450;-40
2024/01/24 03:18:37;;;;;;;40.80;23.10;;;;;;;1.25;85.15;100059.98;107626;1254;73715;-39
2024/01/24 03:21:08;;;;;;;34.40;23.60;;;;;;;1.25;85.11;100057.90;107513;1254;149979;-40
2024/01/24 03:24:15;;;;;;;37.30;24.10;;;;;;;1.23;85.34;100055.29;104209;1294;600317;-39
2024/01/24 03:26:43;;;;;;;39.40;24.50;;;;;;;1.23;85.16;100054.66;106613;1269;59219;-40
2024/01/24 03:29:10;;;;;;;36.40;23.60;;;;;;;1.22;85.05;100055.63;106614;1266;60038;-40
2024/01/24 03:31:43;;;;;;;35.20;22.40;;;;;;;1.27;84.86;100052.80;106639;1266;72252;-40
2024/01/24 03:34:11;;;;;;;34.40;22.00;;;;;;;1.34;84.79;100054.83;106730;1267;66113;-40
2024/01/24 03:36:39;;;;;;;38.20;24.00;;;;;;;1.36;84.75;100057.53;106660;1266;71394;-40
2024/01/24 03:39:09;;;;;;;35.10;22.80;;;;;;;1.36;84.74;100053.35;106643;1264;59481;-41
2024/01/24 03:41:37;;;;;;;36.40;23.00;;;;;;;1.36;84.72;100057.74;106743;1263;60026;-41
2024/01/24 03:44:05;;;;;;;34.50;22.10;;;;;;;1.33;84.61;100059.16;106810;1263;72317;-41
2024/01/24 03:46:33;;;;;;;42.60;22.70;;;;;;;1.33;84.31;100058.35;106828;1264;68467;-41
2024/01/24 03:49:01;;;;;;;34.10;22.30;;;;;;;1.34;84.16;100046.28;106810;1263;71475;-40
2024/01/24 03:51:28;;;;;;;35.20;23.20;;;;;;;1.28;84.40;100048.20;106817;1264;59734;-41
2024/01/24 03:53:56;;;;;;;37.90;24.00;;;;;;;1.19;84.72;100052.98;106831;1262;59244;-41
2024/01/24 03:56:24;;;;;;;35.70;22.50;;;;;;;1.12;85.04;100046.75;107311;1258;71737;-41
2024/01/24 03:58:51;;;;;;;33.10;21.70;;;;;;;1.14;85.03;100045.65;107278;1257;68355;-41
2024/01/24 04:01:19;;;;;;;34.50;22.50;;;;;;;1.19;85.14;100042.13;107309;1256;72701;-41
2024/01/24 04:03:48;;;;;;;36.10;24.40;;;;;;;1.20;85.63;100042.46;107319;1256;59631;-41
2024/01/24 04:06:15;;;;;;;35.70;23.40;;;;;;;1.18;85.59;100050.16;107321;1257;59519;-40
2024/01/24 04:08:44;;;;;;;36.00;22.80;;;;;;;1.16;86.03;100046.27;107275;1257;73073;-41
2024/01/24 04:11:11;;;;;;;32.10;20.30;;;;;;;1.20;85.87;100043.35;107280;1258;68882;-41
2024/01/24 04:13:42;;;;;;;28.90;19.50;;;;;;;1.28;85.62;100043.71;107210;1255;73087;-40
2024/01/24 04:16:10;;;;;;;30.90;19.20;;;;;;;1.26;85.71;100052.44;107235;1257;59621;-41
2024/01/24 04:18:37;;;;;;;34.30;20.60;;;;;;;1.18;86.11;100052.61;107262;1256;60006;-41
2024/01/24 04:21:05;;;;;;;31.10;18.90;;;;;;;1.09;86.35;100046.55;107287;1256;73082;-41
2024/01/24 04:23:33;;;;;;;32.20;19.10;;;;;;;1.09;86.53;100043.61;107291;1256;68575;-41
2024/01/24 04:26:06;;;;;;;29.00;18.80;;;;;;;1.10;86.45;100043.77;107308;1256;71386;-41
2024/01/24 04:28:34;;;;;;;33.20;20.20;;;;;;;1.03;86.72;100038.54;107274;1258;59627;-41
2024/01/24 04:31:01;;;;;;;33.10;18.90;;;;;;;0.95;86.99;100041.80;107314;1257;59498;-41
2024/01/24 04:33:29;;;;;;;30.90;17.00;;;;;;;0.91;87.20;100050.06;107269;1257;72282;-41
2024/01/24 04:35:57;;;;;;;28.80;18.10;;;;;;;0.91;87.29;100044.13;107204;1257;67124;-41
2024/01/24 04:38:25;;;;;;;28.10;18.70;;;;;;;0.86;87.64;100037.29;107138;1256;71444;-41
2024/01/24 04:40:52;;;;;;;34.70;19.20;;;;;;;0.79;87.80;100031.79;107164;1256;59635;-41
2024/01/24 04:43:20;;;;;;;27.70;17.50;;;;;;;0.75;87.99;100033.79;107251;1256;60066;-41
2024/01/24 04:45:48;;;;;;;27.70;17.70;;;;;;;0.78;88.16;100034.79;107235;1256;71783;-41
2024/01/24 04:48:16;;;;;;;22.60;14.20;;;;;;;0.78;88.27;100042.05;107249;1256;68429;-41
2024/01/24 04:50:44;;;;;;;30.70;19.70;;;;;;;0.73;88.62;100044.16;107187;1257;72655;-41
2024/01/24 04:53:12;;;;;;;28.90;17.40;;;;;;;0.69;88.97;100061.58;107233;1257;59753;-41
2024/01/24 04:55:39;;;;;;;28.30;17.20;;;;;;;0.73;89.09;100069.61;107191;1257;59559;-41
2024/01/24 04:58:08;;;;;;;29.60;18.10;;;;;;;0.78;88.98;100067.45;107204;1256;72570;-40
2024/01/24 05:00:35;;;;;;;33.00;18.00;;;;;;;0.81;89.23;100064.55;107235;1256;68617;-41
2024/01/24 05:03:04;;;;;;;33.90;18.20;;;;;;;0.80;89.30;100074.70;107251;1257;71415;-41
2024/01/24 05:05:31;;;;;;;29.60;17.70;;;;;;;0.80;89.55;100076.83;107693;1253;60889;-41
2024/01/24 05:07:59;;;;;;;28.10;17.00;;;;;;;0.85;89.27;100071.03;107613;1251;59516;-41
2024/01/24 05:10:26;;;;;;;27.80;16.90;;;;;;;0.96;89.35;100070.73;106912;1256;1003361;-42
2024/01/24 05:12:54;;;;;;;31.80;18.50;;;;;;;0.99;89.36;100072.95;107641;1256;66836;-41
2024/01/24 05:15:21;;;;;;;32.80;18.20;;;;;;;0.97;89.54;100073.62;107636;1252;72857;-41
2024/01/24 05:17:49;;;;;;;30.00;18.40;;;;;;;0.95;89.64;100075.23;107594;1253;59759;-41
2024/01/24 05:20:17;;;;;;;31.90;19.10;;;;;;;0.94;90.03;100071.55;107641;1251;60195;-41
2024/01/24 05:22:46;;;;;;;32.40;19.20;;;;;;;0.96;90.16;100061.52;107676;1254;71792;-41
2024/01/24 05:25:14;;;;;;;29.20;19.20;;;;;;;0.92;90.42;100049.95;107727;1251;68688;-41
2024/01/24 05:27:41;;;;;;;34.40;19.20;;;;;;;0.88;90.88;100058.84;107534;1254;73012;-40
2024/01/24 05:30:09;;;;;;;30.90;18.30;;;;;;;0.91;91.11;100056.52;107534;1251;59747;-41
2024/01/24 05:32:55;;;;;;;30.40;19.00;;;;;;;1.01;90.71;100051.95;107549;1254;59570;-40
2024/01/24 05:35:23;;;;;;;36.90;20.50;;;;;;;1.03;90.79;100046.01;107538;1251;73036;-40
2024/01/24 05:37:51;;;;;;;42.60;21.10;;;;;;;1.05;91.04;100042.48;107660;1253;68346;-40
2024/01/24 05:40:18;;;;;;;37.80;20.20;;;;;;;1.09;91.10;100042.56;107580;1252;72651;-40
2024/01/24 05:42:46;;;;;;;37.00;20.40;;;;;;;1.19;90.93;100040.64;107573;1256;59759;-41
2024/01/24 05:45:15;;;;;;;34.60;20.00;;;;;;;1.30;90.77;100040.33;107680;1253;59176;-40
2024/01/24 05:47:43;;;;;;;39.30;20.10;;;;;;;1.36;90.45;100045.46;106167;1251;1003683;-40
2024/01/24 05:50:12;;;;;;;36.30;20.10;;;;;;;1.36;90.49;100040.06;107609;1253;67464;-40
2024/01/24 05:52:41;;;;;;;65.20;39.70;;;;;;;1.36;90.44;100036.95;107675;1253;72685;-41
2024/01/24 05:55:13;;;;;;;46.50;30.10;;;;;;;1.45;90.05;100032.02;107699;1253;60883;-40
2024/01/24 05:57:41;;;;;;;37.90;20.50;;;;;;;1.54;89.69;100031.81;107648;1254;59244;-41
2024/01/24 06:00:13;;;;;;;37.90;20.30;;;;;;;1.59;89.70;100033.63;107612;1252;73236;-40
2024/01/24 06:02:43;;;;;;;35.40;20.70;;;;;;;1.60;89.52;100038.75;107636;1252;67448;-40
2024/01/24 06:05:11;;;;;;;26.70;14.90;;;;;;;1.58;89.19;100032.36;107571;1253;72315;-40
2024/01/24 06:07:39;;;;;;;32.70;18.20;;;;;;;1.63;89.18;100028.66;107525;1253;60879;-41
2024/01/24 06:10:07;;;;;;;31.40;18.30;;;;;;;1.68;88.45;100017.17;107568;1251;59223;-41
2024/01/24 06:12:35;;;;;;;33.80;20.00;;;;;;;1.68;88.34;100021.44;107579;1251;72984;-41
2024/01/24 06:15:03;;;;;;;41.40;21.10;;;;;;;1.66;88.40;100026.98;107640;1251;68359;-41
2024/01/24 06:17:31;;;;;;;112.30;50.00;;;;;;;1.55;88.40;100012.09;107620;1257;72667;-41
2024/01/24 06:20:01;;;;;;;80.00;38.10;;;;;;;1.61;88.31;100014.46;107612;1251;59583;-41
2024/01/24 06:22:29;;;;;;;49.60;25.80;;;;;;;1.68;87.90;100006.80;107613;1253;59690;-41
2024/01/24 06:24:57;;;;;;;41.70;23.40;;;;;;;1.73;87.52;100001.95;107680;1253;71337;-41
2024/01/24 06:27:25;;;;;;;58.80;33.00;;;;;;;1.71;87.55;100000.56;107646;1252;67424;-39
2024/01/24 06:29:53;;;;;;;61.60;30.80;;;;;;;1.69;87.61;100008.28;107631;1256;72695;-39
2024/01/24 06:32:40;;;;;;;53.80;25.90;;;;;;;1.64;87.62;100009.15;107679;1253;59563;-40
2024/01/24 06:35:09;;;;;;;47.50;25.50;;;;;;;1.62;87.80;100010.45;107618;1251;59587;-39
2024/01/24 06:37:37;;;;;;;43.40;22.40;;;;;;;1.66;87.45;100012.98;107651;1251;73059;-39
2024/01/24 06:40:06;;;;;;;85.30;43.20;;;;;;;1.71;87.37;100005.73;107626;1254;68328;-39
2024/01/24 06:42:33;;;;;;;60.80;32.30;;;;;;;1.70;87.38;100001.75;107641;1251;72668;-40
2024/01/24 06:45:01;;;;;;;57.30;29.00;;;;;;;1.67;87.55;100002.11;107646;1253;59684;-40
2024/01/24 06:47:29;;;;;;;82.70;38.80;;;;;;;1.64;87.68;100004.98;107631;1251;60033;-39
2024/01/24 06:49:56;;;;;;;46.80;25.00;;;;;;;1.69;87.60;100005.89;107644;1253;73027;-40
2024/01/24 06:52:24;;;;;;;44.00;22.30;;;;;;;1.76;87.36;100003.40;107640;1254;68379;-40
2024/01/24 06:54:51;;;;;;;35.80;20.30;;;;;;;1.77;87.39;100008.79;107633;1253;71141;-40
2024/01/24 06:57:19;;;;;;;47.20;25.60;;;;;;;1.73;87.25;100008.08;107545;1253;60111;-40
2024/01/24 06:59:47;;;;;;;42.60;20.60;;;;;;;1.68;87.48;100004.34;107522;1253;59519;-40
2024/01/24 07:02:14;;;;;;;38.10;19.00;;;;;;;1.67;87.25;100009.96;107542;1253;73022;-41
2024/01/24 07:04:42;;;;;;;43.10;21.90;;;;;;;1.72;87.00;100010.55;107564;1253;68597;-40
2024/01/24 07:07:10;;;;;;;40.80;20.10;;;;;;;1.73;87.08;100012.14;107619;1252;72810;-40
2024/01/24 07:09:37;;;;;;;42.00;23.00;;;;;;;1.69;87.08;100011.81;107629;1253;59622;-40
2024/01/24 07:12:06;;;;;;;42.90;23.70;;;;;;;1.64;87.30;100007.98;107618;1252;59439;-40
2024/01/24 07:14:33;;;;;;;48.40;26.90;;;;;;;1.63;87.61;100008.41;107706;1253;71340;-40
2024/01/24 07:17:02;;;;;;;35.00;20.00;;;;;;;1.71;87.56;100004.84;107738;1253;68346;-40
2024/01/24 07:19:29;;;;;;;33.40;20.60;;;;;;;1.79;87.04;99997.23;107633;1253;73011;-40
2024/01/24 07:21:57;;;;;;;40.50;23.70;;;;;;;1.79;87.14;99993.86;107570;1257;59669;-40
2024/01/24 07:24:27;;;;;;;37.00;21.20;;;;;;;1.78;87.15;99994.98;107640;1253;59550;-40
2024/01/24 07:26:56;;;;;;;42.70;21.70;;;;;;;1.77;87.51;100000.51;107606;1257;73366;-40
2024/01/24 07:29:23;;;;;;;36.30;20.40;;;;;;;1.80;87.24;99995.81;107620;1252;68431;-40
2024/01/24 07:31:51;;;;;;;33.20;20.50;;;;;;;1.85;87.08;99992.96;107647;1253;71381;-40
2024/01/24 07:34:18;;;;;;;39.70;20.70;;;;;;;1.86;87.09;99993.92;107679;1253;60425;-40
2024/01/24 07:36:46;;;;;;;40.70;21.90;;;;;;;1.84;87.30;99988.70;107655;1252;60444;-40
2024/01/24 07:39:14;;;;;;;39.10;22.50;;;;;;;1.84;87.23;99986.23;107647;1252;73812;-40
2024/01/24 07:41:41;;;;;;;37.50;22.20;;;;;;;1.90;86.81;99984.25;107641;1253;68660;-40
2024/01/24 07:44:09;;;;;;;39.30;23.40;;;;;;;1.96;86.41;99985.83;107657;1253;72438;-40
2024/01/24 07:46:42;;;;;;;37.20;21.40;;;;;;;1.93;86.55;99975.28;107477;1253;60525;-40
2024/01/24 07:49:10;;;;;;;48.80;25.80;;;;;;;1.88;86.53;99973.15;107690;1253;61035;-41
2024/01/24 07:51:38;;;;;;;43.20;23.10;;;;;;;1.87;86.68;99966.38;105343;1253;1005780;-40
2024/01/24 07:54:06;;;;;;;45.60;23.70;;;;;;;1.97;86.76;99964.59;107630;1253;68383;-40
2024/01/24 07:56:34;;;;;;;39.60;20.80;;;;;;;2.08;86.25;99965.28;107596;1253;72680;-40
2024/01/24 07:59:04;;;;;;;37.50;21.80;;;;;;;2.11;86.33;99960.27;107611;1253;60143;-40
2024/01/24 08:01:31;;;;;;;43.10;24.10;;;;;;;2.11;86.09;99957.92;107638;1253;60435;-40
2024/01/24 08:03:59;;;;;;;39.40;22.00;;;;;;;2.11;85.93;99956.16;107611;1252;73842;-40
2024/01/24 08:06:27;;;;;;;38.80;22.50;;;;;;;2.11;85.99;99952.26;107650;1253;69221;-40
2024/01/24 08:08:55;;;;;;;35.60;20.70;;;;;;;2.20;85.42;99951.70;107593;1251;71193;-40
2024/01/24 08:11:24;;;;;;;37.50;21.00;;;;;;;2.27;85.01;99947.95;107627;1257;60545;-40
2024/01/24 08:13:52;;;;;;;41.30;21.60;;;;;;;2.27;84.96;99948.23;107621;1251;60438;-40
2024/01/24 08:16:21;;;;;;;35.40;21.90;;;;;;;2.21;84.61;99941.41;107555;1252;73973;-40
2024/01/24 08:18:48;;;;;;;37.70;21.90;;;;;;;2.16;84.60;99944.38;107515;1253;68443;-40
2024/01/24 08:21:17;;;;;;;35.10;21.00;;;;;;;2.17;84.65;99941.57;106635;1253;1003101;-40
2024/01/24 08:23:45;;;;;;;36.90;21.90;;;;;;;2.24;84.55;99934.52;107566;1254;59280;-40
2024/01/24 08:26:18;;;;;;;47.20;24.40;;;;;;;2.22;84.37;99930.86;107596;1251;60429;-40
2024/01/24 08:28:47;;;;;;;34.80;22.50;;;;;;;2.18;84.38;99933.96;107640;1253;73862;-40
2024/01/24 08:31:15;;;;;;;40.10;21.30;;;;;;;2.17;84.62;99932.16;107617;1251;68768;-40
2024/01/24 08:33:42;;;;;;;35.80;21.70;;;;;;;2.22;84.43;99927.59;107595;1253;71367;-39
2024/01/24 08:36:12;;;;;;;37.50;22.90;;;;;;;2.30;84.06;99916.83;107592;1253;60523;-40
2024/01/24 08:38:40;;;;;;;38.20;23.00;;;;;;;2.32;84.30;99912.21;107610;1253;60287;-40
2024/01/24 08:41:07;;;;;;;41.30;23.70;;;;;;;2.31;84.18;99902.64;107638;1251;74222;-39
2024/01/24 08:43:35;;;;;;;43.70;23.30;;;;;;;2.33;84.19;99896.83;107654;1251;68656;-40
2024/01/24 08:46:03;;;;;;;41.70;22.50;;;;;;;2.37;84.09;99891.35;107609;1253;72797;-40
2024/01/24 08:48:31;;;;;;;41.00;23.50;;;;;;;2.49;83.60;99884.14;107740;1253;60444;-40
2024/01/24 08:50:58;;;;;;;39.00;23.10;;;;;;;2.59;83.42;99879.75;107592;1251;60065;-40
2024/01/24 08:53:26;;;;;;;42.50;22.30;;;;;;;2.63;83.29;99875.23;107650;1253;72023;-40
2024/01/24 08:55:55;;;;;;;39.10;22.10;;;;;;;2.61;82.60;99870.65;107614;1252;68407;-40
2024/01/24 08:58:22;;;;;;;43.00;22.40;;;;;;;2.58;82.40;99860.54;107601;1251;71854;-40
2024/01/24 09:00:52;;;;;;;37.40;20.80;;;;;;;2.61;82.27;99848.82;106863;1256;1003738;-40
2024/01/24 09:03:20;;;;;;;;;;;;;;;2.68;81.95;99838.96;107681;1253;60293;-40
2024/01/24 09:05:50;;;;;;;44.30;23.00;;;;;;;2.68;81.75;99830.94;107633;1256;73964;-40
2024/01/24 09:08:18;;;;;;;40.60;24.10;;;;;;;2.64;81.98;99826.29;106195;1256;1003777;-41
2024/01/24 09:10:46;;;;;;;41.00;23.00;;;;;;;2.62;81.91;99817.97;107622;1256;73275;-40
2024/01/24 09:13:20;;;;;;;38.00;22.50;;;;;;;2.63;81.87;99809.98;107645;1253;61256;-40
2024/01/24 09:15:48;;;;;;;44.00;22.60;;;;;;;2.75;81.80;99807.23;107622;1251;60413;-40
2024/01/24 09:18:17;;;;;;;40.00;21.80;;;;;;;2.84;81.57;99797.20;107615;1251;73840;-40
2024/01/24 09:20:45;;;;;;;41.50;22.20;;;;;;;2.93;81.47;99796.92;107669;1253;66476;-40
2024/01/24 09:23:14;;;;;;;40.40;22.90;;;;;;;2.98;81.00;99794.58;107594;1254;72473;-40
2024/01/24 09:25:42;;;;;;;37.10;21.50;;;;;;;3.02;80.57;99787.42;107536;1253;60434;-40
2024/01/24 09:28:10;;;;;;;38.10;21.20;;;;;;;3.07;79.74;99779.66;107562;1253;59851;-40
2024/01/24 09:30:39;;;;;;;40.70;22.30;;;;;;;3.07;79.63;99778.88;107551;1253;73956;-40
2024/01/24 09:33:07;;;;;;;38.20;21.30;;;;;;;3.01;79.58;99772.70;107577;1253;68540;-40
2024/01/24 09:35:35;;;;;;;39.10;22.30;;;;;;;2.96;79.72;99767.61;107567;1252;72448;-40
2024/01/24 09:38:02;;;;;;;35.20;20.30;;;;;;;2.94;79.79;99767.31;107585;1253;60518;-40
2024/01/24 09:40:30;;;;;;;33.30;20.20;;;;;;;2.97;79.66;99757.31;107640;1254;60550;-40
2024/01/24 09:43:00;;;;;;;34.40;20.20;;;;;;;3.02;79.53;99755.44;107573;1252;73854;-40
2024/01/24 09:45:28;;;;;;;33.00;20.90;;;;;;;3.02;79.48;99743.28;107628;1256;68691;-40
2024/01/24 09:47:57;;;;;;;36.20;19.90;;;;;;;3.01;79.56;99744.05;107620;1257;72775;-40
2024/01/24 09:50:25;;;;;;;32.40;19.80;;;;;;;2.99;79.05;99738.84;107641;1251;60345;-40
2024/01/24 09:52:53;;;;;;;31.50;19.60;;;;;;;2.98;79.18;99735.50;107650;1251;60389;-40
2024/01/24 09:55:22;;;;;;;29.80;18.50;;;;;;;2.99;79.05;99734.52;107661;1252;74781;-41
2024/01/24 09:57:50;;;;;;;34.10;19.20;;;;;;;2.93;79.04;99729.23;107521;1251;67822;-41
2024/01/24 10:00:18;;;;;;;32.50;20.20;;;;;;;2.85;79.53;99726.82;107594;1257;72783;-41
2024/01/24 10:02:46;;;;;;;33.40;20.10;;;;;;;2.78;79.78;99723.81;107716;1253;60557;-41
2024/01/24 10:05:18;;;;;;;31.50;19.40;;;;;;;2.73;79.91;99717.71;107601;1253;60355;-41
2024/01/24 10:07:46;;;;;;;33.40;19.30;;;;;;;2.79;79.97;99717.27;107620;1251;73002;-41
2024/01/24 10:10:15;;;;;;;32.70;19.90;;;;;;;2.80;80.27;99706.27;107518;1253;68850;-41
2024/01/24 10:12:43;;;;;;;36.10;20.80;;;;;;;2.78;80.53;99696.45;107514;1257;72827;-41
2024/01/24 10:15:11;;;;;;;34.30;20.90;;;;;;;2.78;80.55;99691.24;107515;1252;60492;-41
2024/01/24 10:17:42;;;;;;;35.20;20.50;;;;;;;2.79;80.42;99685.23;107623;1253;60414;-41
2024/01/24 10:20:14;;;;;;;34.50;20.00;;;;;;;2.85;80.32;99683.23;107606;1251;73989;-41
2024/01/24 10:22:43;;;;;;;36.50;20.60;;;;;;;2.91;79.94;99679.84;107628;1253;68577;-40
2024/01/24 10:25:10;;;;;;;35.90;21.10;;;;;;;2.90;79.96;99670.38;107513;1253;71519;-40
2024/01/24 10:27:39;;;;;;;35.80;21.60;;;;;;;2.88;80.12;99663.15;107608;1257;60442;-40
2024/01/24 10:30:12;;;;;;;34.10;20.80;;;;;;;2.87;79.97;99656.84;107701;1257;60338;-40
2024/01/24 10:32:49;;;;;;;29.50;18.90;;;;;;;2.95;80.11;99647.55;107643;1251;73967;-40
2024/01/24 10:35:17;;;;;;;32.90;20.70;;;;;;;3.06;79.89;99642.02;107621;1253;68637;-40
2024/01/24 10:37:45;;;;;;;35.20;21.40;;;;;;;3.08;79.34;99637.64;107591;1257;73019;-40
2024/01/24 10:40:14;;;;;;;35.20;21.90;;;;;;;3.06;79.53;99630.48;107526;1257;60495;-40
2024/01/24 10:42:43;;;;;;;37.90;21.90;;;;;;;3.05;79.53;99625.36;107634;1253;59755;-41
2024/01/24 10:45:11;;;;;;;37.50;21.00;;;;;;;3.06;79.35;99618.96;107620;1253;72638;-40
2024/01/24 10:47:40;;;;;;;32.70;20.50;;;;;;;3.12;79.00;99612.59;107518;1251;68882;-40
2024/01/24 10:50:09;;;;;;;27.70;16.70;;;;;;;3.16;78.99;99601.98;107557;1253;72532;-40
2024/01/24 10:52:42;;;;;;;33.30;21.50;;;;;;;3.18;79.11;99597.86;107602;1252;60630;-41
2024/01/24 10:55:12;;;;;;;36.40;21.60;;;;;;;3.17;78.93;99596.27;105357;1252;1016438;-41
2024/01/24 10:57:43;;;;;;;36.10;21.20;;;;;;;3.15;78.93;99598.24;107395;1260;73855;-41
2024/01/24 11:00:14;;;;;;;32.60;20.80;;;;;;;3.20;78.78;99598.63;107635;1253;69184;-41
2024/01/24 11:02:42;;;;;;;31.40;21.10;;;;;;;3.24;78.45;99587.53;107676;1252;72805;-40
2024/01/24 11:05:17;;;;;;;34.00;20.90;;;;;;;3.19;78.32;99576.88;107602;1253;60415;-40
2024/01/24 11:08:02;;;;;;;35.50;21.70;;;;;;;3.14;78.56;99565.48;107535;1252;60515;-40
2024/01/24 11:10:35;;;;;;;31.40;19.20;;;;;;;3.10;78.58;99559.32;107593;1253;73910;-41
2024/01/24 11:13:04;;;;;;;34.50;19.70;;;;;;;3.16;78.68;99555.48;107595;1253;67523;-41
2024/01/24 11:15:33;;;;;;;32.90;20.50;;;;;;;3.23;78.71;99553.48;107577;1253;71868;-41
2024/01/24 11:18:37;;;;;;;30.90;20.40;;;;;;;3.25;78.59;99544.69;107694;1253;60412;-41